createdAt,value
2023-03-02T00:01:50.229Z,-1.85
2023-03-02T00:04:45.976Z,-1.86
2023-03-02T00:07:14.277Z,-1.89
2023-03-02T00:09:42.050Z,-1.87
2023-03-02T00:12:09.355Z,-1.96
2023-03-02T00:14:37.847Z,-2.03
2023-03-02T00:17:05.076Z,-2.03
2023-03-02T00:19:31.678Z,-2.01
2023-03-02T00:21:58.105Z,-2.00
2023-03-02T00:24:24.813Z,-1.99
2023-03-02T00:26:51.443Z,-1.99
2023-03-02T00:29:17.874Z,-1.93
2023-03-02T00:31:44.501Z,-1.89
2023-03-02T00:34:11.368Z,-1.93
2023-03-02T00:36:39.184Z,-1.93
2023-03-02T00:39:06.066Z,-1.85
2023-03-02T00:41:32.831Z,-1.84
2023-03-02T00:43:59.176Z,-1.88
2023-03-02T00:46:25.834Z,-1.94
2023-03-02T00:48:52.536Z,-1.91
2023-03-02T00:51:19.539Z,-1.95
2023-03-02T00:53:46.373Z,-1.91
2023-03-02T00:56:13.796Z,-2.04
2023-03-02T00:58:40.481Z,-2.14
2023-03-02T01:01:09.672Z,-2.19
2023-03-02T01:03:37.322Z,-2.22
2023-03-02T01:06:04.724Z,-2.27
2023-03-02T01:08:31.515Z,-2.33
2023-03-02T01:11:01.169Z,-2.39
2023-03-02T01:13:28.512Z,-2.43
2023-03-02T01:16:02.437Z,-2.39
2023-03-02T01:18:29.234Z,-2.43
2023-03-02T01:21:07.984Z,-2.46
2023-03-02T01:23:35.385Z,-2.43
2023-03-02T01:26:02.381Z,-2.38
2023-03-02T01:28:29.288Z,-2.32
2023-03-02T01:30:56.108Z,-2.31
2023-03-02T01:33:22.686Z,-2.30
2023-03-02T01:35:49.419Z,-2.33
2023-03-02T01:38:16.013Z,-2.29
2023-03-02T01:44:43.366Z,-2.31
2023-03-02T01:47:24.975Z,-2.31
2023-03-02T01:49:58.962Z,-2.28
2023-03-02T01:52:26.747Z,-2.34
2023-03-02T01:54:57.564Z,-2.37
2023-03-02T01:57:30.021Z,-2.42
2023-03-02T02:00:01.151Z,-2.43
2023-03-02T02:02:28.534Z,-2.42
2023-03-02T02:04:56.468Z,-2.39
2023-03-02T02:07:24.134Z,-2.41
2023-03-02T02:09:54.151Z,-2.42
2023-03-02T02:12:23.112Z,-2.28
2023-03-02T02:14:52.117Z,-2.38
2023-03-02T02:17:19.508Z,-2.43
2023-03-02T02:19:56.343Z,-2.46
2023-03-02T02:22:40.877Z,-2.55
2023-03-02T02:25:18.104Z,-2.61
2023-03-02T02:27:45.501Z,-2.67
2023-03-02T02:30:14.888Z,-2.72
2023-03-02T02:32:44.223Z,-2.71
2023-03-02T02:35:22.290Z,-2.69
2023-03-02T02:37:54.139Z,-2.73
2023-03-02T02:40:43.747Z,-2.73
2023-03-02T02:43:14.091Z,-2.73
2023-03-02T02:45:41.042Z,-2.80
2023-03-02T02:48:21.155Z,-2.82
2023-03-02T02:50:47.572Z,-2.87
2023-03-02T02:53:21.417Z,-2.92
2023-03-02T02:55:51.026Z,-2.93
2023-03-02T02:58:29.802Z,-2.94
2023-03-02T03:00:56.316Z,-2.94
2023-03-02T03:03:36.154Z,-2.96
2023-03-02T03:06:06.218Z,-2.99
2023-03-02T03:08:52.190Z,-2.90
2023-03-02T03:11:24.483Z,-2.95
2023-03-02T03:14:16.094Z,-2.99
2023-03-02T03:16:45.406Z,-3.05
2023-03-02T03:19:20.210Z,-3.04
2023-03-02T03:21:50.129Z,-3.10
2023-03-02T03:24:17.695Z,-3.16
2023-03-02T03:26:45.422Z,-3.25
2023-03-02T03:29:13.103Z,-3.26
2023-03-02T03:31:39.905Z,-3.27
2023-03-02T03:34:06.451Z,-3.28
2023-03-02T03:36:34.095Z,-3.33
2023-03-02T03:39:01.431Z,-3.37
2023-03-02T03:41:28.647Z,-3.41
2023-03-02T03:43:55.479Z,-3.38
2023-03-02T03:46:22.299Z,-3.44
2023-03-02T03:48:49.122Z,-3.47
2023-03-02T03:51:16.355Z,-3.52
2023-03-02T03:53:42.779Z,-3.47
2023-03-02T03:56:09.587Z,-3.53
2023-03-02T03:58:36.432Z,-3.54
2023-03-02T04:01:03.984Z,-3.58
2023-03-02T04:03:30.510Z,-3.61
2023-03-02T04:05:57.447Z,-3.67
2023-03-02T04:08:23.910Z,-3.64
2023-03-02T04:10:50.461Z,-3.68
2023-03-02T04:13:17.402Z,-3.60
2023-03-02T04:15:46.573Z,-3.65
2023-03-02T04:18:14.724Z,-3.60
2023-03-02T04:20:41.186Z,-3.55
2023-03-02T04:23:07.720Z,-3.65
2023-03-02T04:25:34.189Z,-3.73
2023-03-02T04:28:00.873Z,-3.77
2023-03-02T04:30:27.558Z,-3.82
2023-03-02T04:32:57.377Z,-3.82
2023-03-02T04:35:25.666Z,-3.84
2023-03-02T04:37:54.010Z,-3.93
2023-03-02T04:40:20.852Z,-3.94
2023-03-02T04:42:47.724Z,-3.94
2023-03-02T04:45:14.686Z,-3.98
2023-03-02T04:47:41.258Z,-3.97
2023-03-02T04:50:10.992Z,-3.95
2023-03-02T04:52:37.576Z,-3.99
2023-03-02T04:55:05.069Z,-3.93
2023-03-02T04:57:31.845Z,-3.92
2023-03-02T04:59:58.405Z,-3.92
2023-03-02T05:02:25.075Z,-3.91
2023-03-02T05:04:51.696Z,-3.81
2023-03-02T05:07:18.244Z,-3.78
2023-03-02T05:09:44.693Z,-3.77
2023-03-02T05:12:11.182Z,-3.78
2023-03-02T05:14:37.929Z,-3.83
2023-03-02T05:17:04.678Z,-3.84
2023-03-02T05:19:31.260Z,-3.92
2023-03-02T05:21:57.794Z,-3.90
2023-03-02T05:24:24.831Z,-4.08
2023-03-02T05:26:51.598Z,-4.05
2023-03-02T05:29:18.167Z,-4.13
2023-03-02T05:31:46.433Z,-4.11
2023-03-02T05:34:16.515Z,-4.13
2023-03-02T05:36:45.049Z,-4.07
2023-03-02T05:39:12.192Z,-4.05
2023-03-02T05:41:39.445Z,-4.00
2023-03-02T05:44:09.363Z,-4.03
2023-03-02T05:46:37.008Z,-4.04
2023-03-02T05:49:03.925Z,-4.07
2023-03-02T05:51:30.390Z,-4.04
2023-03-02T05:53:56.796Z,-4.06
2023-03-02T05:56:23.861Z,-4.13
2023-03-02T05:58:50.305Z,-4.10
2023-03-02T06:01:16.745Z,-4.12
2023-03-02T06:03:43.668Z,-4.08
2023-03-02T06:06:13.721Z,-4.12
2023-03-02T06:08:41.411Z,-4.09
2023-03-02T06:11:08.925Z,-4.08
2023-03-02T06:13:36.085Z,-4.09
2023-03-02T06:16:03.092Z,-4.02
2023-03-02T06:18:30.066Z,-4.05
2023-03-02T06:20:56.539Z,-4.02
2023-03-02T06:23:23.223Z,-3.98
2023-03-02T06:25:49.668Z,-3.95
2023-03-02T06:28:18.780Z,-3.91
2023-03-02T06:30:48.391Z,-3.89
2023-03-02T06:33:16.333Z,-3.90
2023-03-02T06:35:43.086Z,-3.83
2023-03-02T06:38:09.774Z,-3.77
2023-03-02T06:40:36.454Z,-3.79
2023-03-02T06:43:04.412Z,-3.73
2023-03-02T06:45:33.730Z,-3.67
2023-03-02T06:48:01.100Z,-3.69
2023-03-02T06:50:28.585Z,-3.78
2023-03-02T06:52:55.468Z,-3.79
2023-03-02T06:55:22.206Z,-3.82
2023-03-02T06:57:48.996Z,-3.79
2023-03-02T07:00:25.965Z,-3.69
2023-03-02T07:02:53.013Z,-3.62
2023-03-02T07:05:19.821Z,-3.56
2023-03-02T07:07:46.276Z,-3.50
2023-03-02T07:10:13.420Z,-3.42
2023-03-02T07:12:40.972Z,-3.40
2023-03-02T07:15:11.125Z,-3.40
2023-03-02T07:17:38.910Z,-3.33
2023-03-02T07:20:06.481Z,-3.27
2023-03-02T07:22:32.960Z,-3.23
2023-03-02T07:25:00.582Z,-3.16
2023-03-02T07:27:27.302Z,-3.08
2023-03-02T07:29:53.738Z,-2.98
2023-03-02T07:32:20.723Z,-2.87
2023-03-02T07:34:47.206Z,-2.77
2023-03-02T07:37:13.736Z,-2.61
2023-03-02T07:39:40.107Z,-2.49
2023-03-02T07:42:09.114Z,-2.34
2023-03-02T07:44:35.570Z,-2.29
2023-03-02T07:47:02.013Z,-2.21
2023-03-02T07:49:28.573Z,-2.09
2023-03-02T07:51:54.947Z,-2.01
2023-03-02T07:54:21.394Z,-1.93
2023-03-02T07:56:48.245Z,-1.75
2023-03-02T07:59:14.712Z,-1.69
2023-03-02T08:01:41.562Z,-1.67
2023-03-02T08:04:08.038Z,-1.59
2023-03-02T08:06:34.821Z,-1.47
2023-03-02T08:09:04.878Z,-1.34
2023-03-02T08:11:31.911Z,-1.24
2023-03-02T08:14:02.674Z,-1.11
2023-03-02T08:16:29.949Z,-0.91
2023-03-02T08:18:59.314Z,-0.72
2023-03-02T08:21:27.505Z,-0.56
2023-03-02T08:23:54.211Z,-0.38
2023-03-02T08:26:21.599Z,-0.08
2023-03-02T08:28:48.348Z,0.04
2023-03-02T08:31:15.509Z,0.25
2023-03-02T08:33:42.401Z,0.39
2023-03-02T08:36:14.057Z,0.64
2023-03-02T08:38:40.877Z,0.80
2023-03-02T08:41:10.850Z,1.07
2023-03-02T08:43:37.266Z,1.24
2023-03-02T08:46:04.351Z,1.30
2023-03-02T08:48:31.282Z,1.34
2023-03-02T08:51:25.285Z,1.59
2023-03-02T08:53:55.208Z,1.58
2023-03-02T08:56:30.534Z,1.70
2023-03-02T08:59:03.387Z,1.76
2023-03-02T09:01:33.504Z,2.02
2023-03-02T09:04:01.308Z,2.32
2023-03-02T09:06:29.579Z,2.58
2023-03-02T09:08:56.649Z,2.65
2023-03-02T09:11:23.351Z,2.64
2023-03-02T09:13:50.217Z,2.89
2023-03-02T09:16:17.199Z,2.93
2023-03-02T09:18:43.913Z,2.92
2023-03-02T09:21:10.388Z,2.96
2023-03-02T09:23:37.250Z,3.49
2023-03-02T09:26:04.742Z,3.80
2023-03-02T09:28:32.316Z,4.01
2023-03-02T09:31:01.345Z,4.14
2023-03-02T09:33:30.402Z,4.21
2023-03-02T09:35:57.467Z,4.29
2023-03-02T09:38:24.333Z,4.40
2023-03-02T09:41:09.578Z,4.51
2023-03-02T09:43:47.542Z,4.51
2023-03-02T09:46:20.607Z,4.62
2023-03-02T09:49:01.588Z,4.73
2023-03-02T09:51:42.722Z,4.81
2023-03-02T09:54:32.242Z,4.87
2023-03-02T09:56:59.644Z,5.05
2023-03-02T09:59:31.848Z,5.15
2023-03-02T10:02:01.359Z,5.28
2023-03-02T10:04:33.760Z,5.37
2023-03-02T10:07:28.362Z,5.51
2023-03-02T10:10:18.447Z,5.64
2023-03-02T10:13:01.926Z,5.77
2023-03-02T10:15:34.619Z,5.86
2023-03-02T10:18:21.034Z,5.95
2023-03-02T10:21:00.240Z,6.07
2023-03-02T10:23:33.162Z,6.15
2023-03-02T10:26:18.114Z,6.33
2023-03-02T10:28:50.246Z,6.36
2023-03-02T10:31:32.641Z,6.44
2023-03-02T10:34:00.540Z,6.52
2023-03-02T10:36:37.341Z,6.70
2023-03-02T10:39:12.602Z,6.82
2023-03-02T10:41:47.174Z,6.92
2023-03-02T10:44:19.711Z,7.03
2023-03-02T10:46:47.114Z,6.98
2023-03-02T10:49:36.306Z,7.12
2023-03-02T10:52:13.852Z,7.33
2023-03-02T10:54:41.566Z,7.35
2023-03-02T10:57:40.386Z,7.52
2023-03-02T11:00:26.238Z,7.59
2023-03-02T11:02:56.812Z,7.67
2023-03-02T11:05:37.096Z,7.74
2023-03-02T11:08:10.164Z,7.94
2023-03-02T11:10:51.008Z,7.98
2023-03-02T11:13:19.140Z,8.07
2023-03-02T11:15:51.879Z,8.21
2023-03-02T11:18:40.169Z,8.24
2023-03-02T11:21:09.260Z,8.32
2023-03-02T11:24:12.458Z,8.43
2023-03-02T11:26:44.132Z,8.61
2023-03-02T11:29:23.120Z,8.75
2023-03-02T11:31:58.244Z,8.67
2023-03-02T11:34:48.237Z,8.62
2023-03-02T11:37:30.081Z,8.75
2023-03-02T11:40:08.864Z,8.75
2023-03-02T11:42:44.755Z,8.88
2023-03-02T11:45:14.147Z,8.92
2023-03-02T11:48:05.609Z,8.96
2023-03-02T11:50:35.418Z,9.07
2023-03-02T11:53:07.264Z,9.17
2023-03-02T11:55:44.807Z,9.16
2023-03-02T11:58:21.456Z,9.17
2023-03-02T12:00:49.374Z,9.13
2023-03-02T12:03:15.768Z,9.19
2023-03-02T12:05:58.667Z,9.28
2023-03-02T12:08:25.012Z,9.41
2023-03-02T12:11:04.783Z,9.43
2023-03-02T12:13:32.771Z,9.47
2023-03-02T12:15:59.808Z,9.53
2023-03-02T12:18:29.435Z,9.72
2023-03-02T12:21:03.522Z,9.79
2023-03-02T12:23:33.399Z,9.77
2023-03-02T12:26:24.544Z,9.77
2023-03-02T12:29:37.419Z,9.92
2023-03-02T12:32:23.714Z,9.93
2023-03-02T12:35:01.247Z,10.09
2023-03-02T12:37:32.969Z,10.16
2023-03-02T12:40:18.390Z,10.26
2023-03-02T12:43:03.646Z,10.29
2023-03-02T12:45:58.259Z,10.43
2023-03-02T12:48:36.903Z,10.35
2023-03-02T12:51:07.792Z,10.45
2023-03-02T12:53:36.397Z,10.49
2023-03-02T12:56:02.889Z,10.41
2023-03-02T12:58:29.469Z,10.46
2023-03-02T13:00:58.570Z,10.55
2023-03-02T13:03:26.742Z,10.64
2023-03-02T13:06:04.595Z,10.74
2023-03-02T13:08:32.937Z,10.86
2023-03-02T13:11:02.530Z,10.86
2023-03-02T13:13:39.053Z,10.78
2023-03-02T13:16:18.062Z,10.93
2023-03-02T13:18:44.870Z,10.96
2023-03-02T13:21:15.247Z,10.79
2023-03-02T13:23:46.999Z,10.92
2023-03-02T13:26:27.310Z,10.93
2023-03-02T13:29:07.480Z,10.96
2023-03-02T13:31:35.050Z,10.97
2023-03-02T13:34:01.640Z,11.06
2023-03-02T13:36:37.392Z,10.99
2023-03-02T13:39:07.032Z,11.08
2023-03-02T13:41:36.414Z,11.26
2023-03-02T13:44:19.652Z,11.11
2023-03-02T13:46:47.051Z,11.10
2023-03-02T13:49:14.871Z,11.03
2023-03-02T13:51:48.903Z,11.15
2023-03-02T13:54:25.764Z,11.19
2023-03-02T13:56:53.675Z,11.26
2023-03-02T13:59:21.770Z,11.15
2023-03-02T14:01:48.855Z,11.23
2023-03-02T14:04:18.553Z,11.23
2023-03-02T14:06:45.853Z,11.23
2023-03-02T14:09:12.900Z,11.35
2023-03-02T14:11:42.724Z,11.32
2023-03-02T14:14:16.206Z,11.41
2023-03-02T14:16:42.876Z,11.40
2023-03-02T14:19:13.532Z,11.43
2023-03-02T14:21:41.025Z,11.26
2023-03-02T14:24:08.065Z,11.25
2023-03-02T14:26:40.831Z,11.11
2023-03-02T14:29:25.296Z,11.20
2023-03-02T14:31:52.099Z,11.17
2023-03-02T14:34:18.823Z,11.24
2023-03-02T14:36:48.635Z,11.18
2023-03-02T14:39:22.742Z,11.26
2023-03-02T14:41:54.074Z,11.18
2023-03-02T14:44:21.184Z,11.23
2023-03-02T14:46:48.138Z,11.31
2023-03-02T14:49:14.826Z,11.20
2023-03-02T14:51:44.755Z,11.18
2023-03-02T14:54:19.453Z,11.26
2023-03-02T14:56:47.657Z,11.38
2023-03-02T14:59:15.536Z,11.38
2023-03-02T15:01:44.425Z,11.33
2023-03-02T15:04:11.216Z,11.20
2023-03-02T15:06:39.455Z,11.21
2023-03-02T15:09:06.385Z,11.20
2023-03-02T15:11:33.591Z,11.22
2023-03-02T15:14:00.640Z,11.24
2023-03-02T15:16:27.070Z,11.34
2023-03-02T15:18:54.028Z,11.41
2023-03-02T15:21:23.378Z,11.40
2023-03-02T15:23:51.006Z,11.40
2023-03-02T15:26:17.850Z,11.31
2023-03-02T15:28:47.058Z,11.16
2023-03-02T15:31:16.479Z,11.12
2023-03-02T15:33:45.075Z,11.00
2023-03-02T15:36:13.021Z,10.95
2023-03-02T15:38:39.928Z,10.95
2023-03-02T15:41:08.798Z,11.04
2023-03-02T15:43:35.194Z,10.96
2023-03-02T15:46:02.561Z,10.95
2023-03-02T15:48:29.971Z,10.96
2023-03-02T15:51:01.716Z,10.90
2023-03-02T15:53:29.717Z,10.82
2023-03-02T15:55:56.860Z,10.75
2023-03-02T15:58:23.349Z,10.72
2023-03-02T16:00:51.028Z,10.63
2023-03-02T16:03:19.184Z,10.67
2023-03-02T16:05:45.786Z,10.62
2023-03-02T16:08:12.446Z,10.70
2023-03-02T16:10:40.053Z,10.64
2023-03-02T16:13:06.848Z,10.64
2023-03-02T16:15:40.412Z,10.62
2023-03-02T16:18:09.033Z,10.56
2023-03-02T16:20:37.179Z,10.40
2023-03-02T16:23:06.183Z,10.23
2023-03-02T16:25:39.598Z,10.21
2023-03-02T16:28:08.032Z,10.20
2023-03-02T16:30:35.684Z,10.13
2023-03-02T16:33:04.993Z,9.95
2023-03-02T16:35:33.750Z,9.83
2023-03-02T16:38:00.348Z,9.82
2023-03-02T16:40:27.018Z,9.69
2023-03-02T16:42:53.771Z,9.60
2023-03-02T16:45:21.108Z,9.43
2023-03-02T16:47:47.993Z,9.34
2023-03-02T16:50:15.913Z,9.19
2023-03-02T16:52:43.240Z,9.11
2023-03-02T16:55:16.825Z,8.95
2023-03-02T16:57:43.848Z,8.77
2023-03-02T17:00:14.314Z,8.49
2023-03-02T17:02:40.778Z,8.11
2023-03-02T17:05:07.916Z,7.80
2023-03-02T17:07:34.440Z,7.47
2023-03-02T17:10:00.842Z,7.27
2023-03-02T17:12:27.826Z,6.97
2023-03-02T17:14:54.210Z,6.75
2023-03-02T17:17:20.776Z,6.54
2023-03-02T17:19:47.401Z,6.32
2023-03-02T17:22:13.971Z,6.12
2023-03-02T17:24:41.488Z,5.91
2023-03-02T17:27:15.964Z,5.73
2023-03-02T17:29:51.075Z,5.50
2023-03-02T17:32:17.871Z,5.24
2023-03-02T17:34:44.820Z,5.10
2023-03-02T17:37:11.307Z,4.92
2023-03-02T17:39:38.793Z,4.75
2023-03-02T17:42:06.625Z,4.61
2023-03-02T17:44:34.538Z,4.42
2023-03-02T17:47:03.777Z,4.18
2023-03-02T17:49:31.314Z,4.03
2023-03-02T17:51:57.702Z,3.89
2023-03-02T17:54:24.281Z,3.85
2023-03-02T17:56:50.833Z,3.77
2023-03-02T17:59:17.574Z,3.63
2023-03-02T18:01:44.061Z,3.52
2023-03-02T18:04:11.305Z,3.38
2023-03-02T18:06:37.815Z,3.35
2023-03-02T18:09:04.548Z,3.29
2023-03-02T18:11:31.069Z,3.13
2023-03-02T18:13:58.374Z,2.98
2023-03-02T18:16:28.075Z,2.88
2023-03-02T18:18:56.064Z,2.81
2023-03-02T18:21:22.655Z,2.81
2023-03-02T18:23:49.610Z,2.72
2023-03-02T18:26:17.136Z,2.84
2023-03-02T18:28:43.593Z,2.87
2023-03-02T18:31:14.655Z,2.75
2023-03-02T18:33:42.032Z,2.66
2023-03-02T18:36:08.941Z,2.50
2023-03-02T18:38:36.719Z,2.33
2023-03-02T18:41:06.324Z,2.21
2023-03-02T18:43:35.049Z,2.22
2023-03-02T18:46:04.586Z,2.19
2023-03-02T18:48:31.782Z,2.19
2023-03-02T18:50:58.940Z,2.16
2023-03-02T18:53:26.859Z,2.25
2023-03-02T18:55:56.655Z,2.20
2023-03-02T18:58:25.044Z,2.09
2023-03-02T19:00:53.562Z,2.05
2023-03-02T19:03:20.844Z,1.91
2023-03-02T19:05:47.271Z,1.82
2023-03-02T19:08:14.092Z,1.75
2023-03-02T19:10:42.252Z,1.75
2023-03-02T19:13:11.910Z,1.80
2023-03-02T19:15:39.865Z,1.83
2023-03-02T19:18:06.485Z,1.79
2023-03-02T19:20:33.025Z,1.79
2023-03-02T19:23:01.882Z,1.76
2023-03-02T19:25:28.461Z,1.77
2023-03-02T19:27:54.936Z,1.81
2023-03-02T19:30:24.956Z,1.88
2023-03-02T19:32:53.938Z,1.88
2023-03-02T19:35:23.071Z,1.78
2023-03-02T19:37:50.081Z,1.67
2023-03-02T19:40:18.952Z,1.58
2023-03-02T19:42:47.337Z,1.64
2023-03-02T19:45:17.047Z,1.63
2023-03-02T19:47:45.114Z,1.64
2023-03-02T19:50:13.770Z,1.64
2023-03-02T19:52:40.707Z,1.67
2023-03-02T19:55:10.421Z,1.74
2023-03-02T19:57:37.912Z,1.77
2023-03-02T20:00:07.189Z,1.77
2023-03-02T20:02:35.917Z,1.71
2023-03-02T20:05:04.011Z,1.66
2023-03-02T20:07:30.518Z,1.60
2023-03-02T20:09:57.177Z,1.51
2023-03-02T20:12:23.672Z,1.46
2023-03-02T20:14:51.527Z,1.33
2023-03-02T20:17:19.517Z,1.21
2023-03-02T20:19:47.493Z,1.09
2023-03-02T20:22:14.680Z,1.04
2023-03-02T20:24:41.980Z,1.01
2023-03-02T20:27:09.330Z,1.01
2023-03-02T20:29:37.899Z,0.94
2023-03-02T20:32:08.849Z,0.94
2023-03-02T20:34:37.521Z,0.97
2023-03-02T20:37:04.730Z,0.95
2023-03-02T20:39:34.527Z,0.99
2023-03-02T20:42:01.673Z,1.03
2023-03-02T20:44:30.970Z,1.04
2023-03-02T20:47:02.141Z,1.10
2023-03-02T20:49:30.402Z,1.12
2023-03-02T20:51:59.199Z,1.17
2023-03-02T20:54:32.862Z,1.12
2023-03-02T20:57:01.004Z,1.03
2023-03-02T20:59:28.546Z,1.00
2023-03-02T21:01:55.243Z,0.98
2023-03-02T21:04:22.923Z,0.89
2023-03-02T21:06:50.840Z,0.86
2023-03-02T21:09:18.029Z,0.77
2023-03-02T21:11:46.049Z,0.77
2023-03-02T21:14:14.104Z,0.77
2023-03-02T21:16:42.105Z,0.68
2023-03-02T21:19:13.126Z,0.63
2023-03-02T21:21:42.229Z,0.49
2023-03-02T21:24:11.556Z,0.35
2023-03-02T21:26:38.806Z,0.26
2023-03-02T21:29:05.725Z,0.17
2023-03-02T21:31:32.804Z,0.08
2023-03-02T21:34:01.002Z,0.10
2023-03-02T21:36:28.108Z,0.04
2023-03-02T21:38:54.671Z,-0.04
2023-03-02T21:41:21.972Z,-0.07
2023-03-02T21:43:48.939Z,-0.15
2023-03-02T21:46:19.948Z,-0.15
2023-03-02T21:48:47.704Z,-0.14
2023-03-02T21:51:15.390Z,-0.15
2023-03-02T21:53:41.966Z,-0.22
2023-03-02T21:56:09.198Z,-0.23
2023-03-02T21:58:35.607Z,-0.33
2023-03-02T22:01:02.827Z,-0.38
2023-03-02T22:03:29.326Z,-0.42
2023-03-02T22:05:55.914Z,-0.40
2023-03-02T22:08:22.359Z,-0.37
2023-03-02T22:10:51.695Z,-0.33
2023-03-02T22:13:31.669Z,-0.34
2023-03-02T22:16:15.303Z,-0.32
2023-03-02T22:18:43.712Z,-0.40
2023-03-02T22:21:39.781Z,-0.44
2023-03-02T22:24:20.540Z,-0.43
2023-03-02T22:26:53.322Z,-0.49
2023-03-02T22:29:27.527Z,-0.58
2023-03-02T22:31:56.238Z,-0.66
2023-03-02T22:34:26.490Z,-0.72
2023-03-02T22:36:59.028Z,-0.77
2023-03-02T22:39:33.198Z,-0.81
2023-03-02T22:42:12.090Z,-0.85
2023-03-02T22:44:39.040Z,-0.88
2023-03-02T22:47:18.632Z,-0.95
2023-03-02T22:49:47.165Z,-0.98
2023-03-02T22:52:17.450Z,-0.99
2023-03-02T22:54:45.915Z,-0.99
2023-03-02T22:57:33.276Z,-0.98
2023-03-02T23:00:12.232Z,-1.05
2023-03-02T23:02:42.305Z,-1.05
2023-03-02T23:05:35.947Z,-1.07
2023-03-02T23:08:23.478Z,-1.13
2023-03-02T23:10:52.130Z,-1.22
2023-03-02T23:13:21.962Z,-1.27
2023-03-02T23:15:49.531Z,-1.26
2023-03-02T23:18:23.430Z,-1.22
2023-03-02T23:20:51.592Z,-1.28
2023-03-02T23:23:19.658Z,-1.36
2023-03-02T23:25:46.722Z,-1.45
2023-03-02T23:28:13.206Z,-1.45
2023-03-02T23:30:40.750Z,-1.48
2023-03-02T23:33:07.303Z,-1.52
2023-03-02T23:35:33.847Z,-1.59
2023-03-02T23:38:01.406Z,-1.59
2023-03-02T23:40:29.265Z,-1.61
2023-03-02T23:42:56.208Z,-1.65
2023-03-02T23:45:22.717Z,-1.68
2023-03-02T23:47:49.347Z,-1.74
2023-03-02T23:50:15.813Z,-1.69
2023-03-02T23:52:42.380Z,-1.66
2023-03-02T23:55:09.475Z,-1.70
2023-03-02T23:57:36.450Z,-1.67
